アシガバート の空港の天気 - METARとTAF

アシガバート空港 ( UTAA / ASB ) - トルクメニスタン アシガバート
飛行場実況気象(Metar)
観測時間12/10 10:00 TMT (12/10 05:00 UTC)
風向・風速東 3m/s
視程4900m
天気現象もや
全天の4割程度の雲 雲底高度 610m
全天の8割程度の雲 雲底高度 3050m
気温10℃
湿度94%
気圧1021hPa
METARUTAA 100500Z 10006KT 4900 BR SCT020 BKN100 10/09 Q1021 R88/70D NOSIG
過去の天気等 Google飛行場航空写真 Wunderground天気予報

過去48時間のMETAR

飛行場予報(TAF)
発表時間: 12/10 03:30 TMT (12/09 22:30 UTC)
予報対象時間: 10日5時 TMT ~ 11日5時 TMT
風向・風速東 8m/s
視程4000m
天気現象もや
全天の8割程度の雲 雲底高度 120m
全天の4割程度の積乱雲 雲底高度 910m
10日5時 TMT ~ 10日10時 TMT に一時的に
風向・風速不定 2m/s
視程1200m
天気現象もや
全天を覆う雲 雲底高度 60m
10日5時 TMT ~ 10日10時 TMT に 確率 40% で一時的に
天気現象弱い雨
TAF UTAA 092230Z 1000/1024 09016KT 4000 BR BKN004 SCT030CB 530007
TEMPO 1000/1005 VRB03KT 1200 BR OVC002
PROB40 TEMPO 1000/1005 -RA